KSBY/SBY METAR and TAF weather

Enter ICAO airport designator
Station Type Date Time Source
KSBY METAR 2022/01/26 07:54 UTC NOAA

KSBY 260754Z AUTO 33008G17KT 10SM OVC048 M01/M09 A3023 RMK AO2 SLP239 T10061094


Station Type Date Time Source
KSBY Decoded METAR 2022/01/26 07:54 UTC NOAA

SALISBURY-WICOMICO CTY REG, MD, United States (KSBY) 38-20N 075-30W 19M
Jan 26, 2022 - 02:54 AM EST / 2022.01.26 0754 UTC
Wind: from the NNW (330 degrees) at 9 MPH (8 KT) gusting to 20 MPH (17 KT):0
Visibility: 10 mile(s):0
Sky conditions: overcast
Temperature: 30.9 F (-0.6 C)
Windchill: 23 F (-5 C):1
Dew Point: 15.1 F (-9.4 C)
Relative Humidity: 51%
Pressure (altimeter): 30.23 in. Hg (1023 hPa)
ob: KSBY 260754Z AUTO 33008G17KT 10SM OVC048 M01/M09 A3023 RMK AO2 SLP239 T10061094
cycle: 8

Station Type Date Time Source
KSBY TAF 2022/01/26 06:27 UTC NOAA

TAF KSBY 260524Z 2606/2706 35008KT P6SM BKN050
FM261100 34008KT P6SM SCT250
FM261400 33010G18KT P6SM SKC
FM262200 36005KT P6SM SKC

Example: see airport list